Home > Products > Valid Products > MTR

000
SAUS43 KDDC 292257
MTRP28
METAR KP28 292256Z AUTO 34007KT 35/12 A2994 RMK AO1 SLP121 T03500122





000
SAUS43 KDDC 292157
MTRP28
METAR KP28 292156Z AUTO 01009KT 36/12 A2996 RMK AO1 SLP125 T03560122





000
SAUS43 KDDC 292157
MTRP28
METAR KP28 292156Z AUTO 01009KT 36/12 A2996 RMK AO1 SLP125 T03560122





000
SAUS43 KDDC 292058
MTRP28
METAR KP28 292056Z AUTO 01006KT 36/13 A2996 RMK AO1 SLP128 T03560128
58016





000
SAUS43 KDDC 292058
MTRP28
METAR KP28 292056Z AUTO 01006KT 36/13 A2996 RMK AO1 SLP128 T03560128
58016





000
SAUS43 KDDC 291958
MTRP28
METAR KP28 291956Z AUTO 29007KT 34/12 A2998 RMK AO1 SLP135 T03440122





000
SAUS43 KDDC 291901 COR
MTRP28
METAR KP28 291856Z AUTO 26005KT 34/13 A3000 RMK AO1 SLP140 T03390128





000
SAUS43 KDDC 291757
MTRP28
METAR KP28 291756Z AUTO VRB03KT 32/12 A3001 RMK AO1 SLP146 T03220122
10322 20194 58000





000
SAUS43 KDDC 291757
MTRP28
METAR KP28 291756Z AUTO VRB03KT 32/12 A3001 RMK AO1 SLP146 T03220122
10322 20194 58000





000
SAUS43 KDDC 291657
MTRP28
METAR KP28 291656Z AUTO VRB04KT 31/13 A3002 RMK AO1 SLP148 T03110128





000
SAUS43 KDDC 291557
MTRP28
METAR KP28 291556Z AUTO VRB04KT 30/13 A3003 RMK AO1 SLP150 T03000133





000
SAUS43 KDDC 291457
MTRP28
METAR KP28 291456Z AUTO VRB05KT 28/15 A3002 RMK AO1 SLP146 T02830150
51013





000
SAUS43 KDDC 291457
MTRP28
METAR KP28 291456Z AUTO VRB05KT 28/15 A3002 RMK AO1 SLP146 T02830150
51013





000
SAUS43 KDDC 291358
MTRP28
METAR KP28 291356Z AUTO 05005KT 26/16 A3001 RMK AO1 SLP144 T02610161





000
SAUS43 KDDC 291358
MTRP28
METAR KP28 291356Z AUTO 05005KT 26/16 A3001 RMK AO1 SLP144 T02610161





000
SAUS43 KDDC 291257
MTRP28
METAR KP28 291256Z AUTO 00000KT 22/16 A2999 RMK AO1 SLP137 T02220161





000
SAUS43 KDDC 291257
MTRP28
METAR KP28 291256Z AUTO 00000KT 22/16 A2999 RMK AO1 SLP137 T02220161





000
SAUS43 KDDC 291157
MTRP28
METAR KP28 291156Z AUTO 00000KT 20/16 A2997 RMK AO1 SLP132 70004
T02000156 10233 20194 53004





000
SAUS43 KDDC 291157
MTRP28
METAR KP28 291156Z AUTO 00000KT 20/16 A2997 RMK AO1 SLP132 70004
T02000156 10233 20194 53004





000
SAUS43 KDDC 291058
MTRP28
METAR KP28 291056Z AUTO 01003KT 19/16 A2997 RMK AO1 SLP129 T01940156





000
SAUS43 KDDC 290958
MTRP28
METAR KP28 290956Z AUTO 02005KT 21/16 A2996 RMK AO1 SLP126 T02060156





000
SAUS43 KDDC 290857
MTRP28
METAR KP28 290856Z AUTO 00000KT 22/17 A2996 RMK AO1 SLP127 T02170167
51002





000
SAUS43 KDDC 290857
MTRP28
METAR KP28 290856Z AUTO 00000KT 22/17 A2996 RMK AO1 SLP127 T02170167
51002





000
SAUS43 KDDC 290757
MTRP28
METAR KP28 290756Z AUTO 01004KT 21/18 A2996 RMK AO1 SLP125 T02060183





000
SAUS43 KDDC 290757
MTRP28
METAR KP28 290756Z AUTO 01004KT 21/18 A2996 RMK AO1 SLP125 T02060183





000
SAUS43 KDDC 290658
MTRP28
METAR KP28 290656Z AUTO 01004KT 22/19 A2996 RMK AO1 SLP128 T02170189





000
SAUS43 KDDC 290558
MTRP28
METAR KP28 290556Z AUTO 34003KT 23/21 A2996 RMK AO1 SLP125 60004
T02330206 10350 20228 403670161 51016





000
SAUS43 KDDC 290558
MTRP28
METAR KP28 290556Z AUTO 34003KT 23/21 A2996 RMK AO1 SLP125 60004
T02330206 10350 20228 403670161 51016





000
SAUS43 KDDC 290457
MTRP28
METAR KP28 290456Z AUTO 01003KT 24/21 A2995 RMK AO1 SLP121 T02390206





000
SAUS43 KDDC 290357
MTRP28
METAR KP28 290356Z AUTO 05007KT 24/21 A2995 RMK AO1 SLP123 P0004
T02390206





000
SAUS43 KDDC 290258
MTRP28
METAR KP28 290256Z AUTO 01007G17KT 27/19 A2991 RMK AO1 SLP109
T02720194 53011





000
SAUS43 KDDC 290157
MTRP28
METAR KP28 290156Z AUTO 22005KT 31/17 A2988 RMK AO1 SLP101 T03060172





000
SAUS43 KDDC 290157
MTRP28
METAR KP28 290156Z AUTO 22005KT 31/17 A2988 RMK AO1 SLP101 T03060172





000
SAUS43 KDDC 290057
MTRP28
METAR KP28 290056Z AUTO 21007KT 34/17 A2987 RMK AO1 SLP097 T03390167





000
SAUS43 KDDC 290057
MTRP28
METAR KP28 290056Z AUTO 21007KT 34/17 A2987 RMK AO1 SLP097 T03390167





000
SAUS43 KDDC 282357
MTRP28
METAR KP28 282356Z AUTO 24005KT 35/17 A2987 RMK AO1 SLP097 T03500167
10367 20333 58012





000
SAUS43 KDDC 282357
MTRP28
METAR KP28 282356Z AUTO 24005KT 35/17 A2987 RMK AO1 SLP097 T03500167
10367 20333 58012





000
SAUS43 KDDC 282257
MTRP28
METAR KP28 282256Z AUTO 23008KT 35/16 A2989 RMK AO1 SLP102 T03500161





000
SAUS43 KDDC 282158
MTRP28
METAR KP28 282156Z AUTO 25006KT 36/15 A2990 RMK AO1 SLP106 T03610150





000
SAUS43 KDDC 282057
MTRP28
METAR KP28 282056Z AUTO 24006KT 36/15 A2991 RMK AO1 SLP110 T03610150
56020





000
SAUS43 KDDC 282057
MTRP28
METAR KP28 282056Z AUTO 24006KT 36/15 A2991 RMK AO1 SLP110 T03610150
56020





000
SAUS43 KDDC 281957
MTRP28
METAR KP28 281956Z AUTO 23008KT 36/14 A2992 RMK AO1 SLP115 T03560139





000
SAUS43 KDDC 281957
MTRP28
METAR KP28 281956Z AUTO 23008KT 36/14 A2992 RMK AO1 SLP115 T03560139





000
SAUS43 KDDC 281857
MTRP28
METAR KP28 281856Z AUTO 25010KT 35/16 A2995 RMK AO1 SLP124 T03500156





000
SAUS43 KDDC 281757
MTRP28
METAR KP28 281756Z AUTO 24009KT 33/16 A2997 RMK AO1 SLP131 T03330161
10339 20183 56015





000
SAUS43 KDDC 281757
MTRP28
METAR KP28 281756Z AUTO 24009KT 33/16 A2997 RMK AO1 SLP131 T03330161
10339 20183 56015





000
SAUS43 KDDC 281657
MTRP28
METAR KP28 281656Z AUTO 25009KT 33/17 A2999 RMK AO1 SLP136 T03280167





000
SAUS43 KDDC 281557
MTRP28
METAR KP28 281556Z AUTO 25008KT 30/16 A3000 RMK AO1 SLP139 T03000161





000
SAUS43 KDDC 281557
MTRP28
METAR KP28 281556Z AUTO 25008KT 30/16 A3000 RMK AO1 SLP139 T03000161





000
SAUS43 KDDC 281458
MTRP28
METAR KP28 281456Z AUTO 24009KT 28/16 A3002 RMK AO1 SLP146 T02780156
58008





000
SAUS43 KDDC 281357
MTRP28
METAR KP28 281356Z AUTO 25006KT 24/16 A3003 RMK AO1 SLP152 T02440156





000
SAUS43 KDDC 281357
MTRP28
METAR KP28 281356Z AUTO 25006KT 24/16 A3003 RMK AO1 SLP152 T02440156





000
SAUS43 KDDC 281257
MTRP28
METAR KP28 281256Z AUTO 19003KT 21/15 A3004 RMK AO1 SLP155 T02060150





000
SAUS43 KDDC 281257
MTRP28
METAR KP28 281256Z AUTO 19003KT 21/15 A3004 RMK AO1 SLP155 T02060150





000
SAUS43 KDDC 281157
MTRP28
METAR KP28 281156Z AUTO 18003KT 18/15 A3004 RMK AO1 SLP157 T01830150
10217 20161 58001





000
SAUS43 KDDC 281157
MTRP28
METAR KP28 281156Z AUTO 18003KT 18/15 A3004 RMK AO1 SLP157 T01830150
10217 20161 58001





000
SAUS43 KDDC 281057
MTRP28
METAR KP28 281056Z AUTO 18004KT 18/15 A3004 RMK AO1 SLP157 T01830150





000
SAUS43 KDDC 281057
MTRP28
METAR KP28 281056Z AUTO 18004KT 18/15 A3004 RMK AO1 SLP157 T01830150





000
SAUS43 KDDC 280957
MTRP28
METAR KP28 280956Z AUTO 16003KT 18/15 A3004 RMK AO1 SLP157 T01830150





000
SAUS43 KDDC 280957
MTRP28
METAR KP28 280956Z AUTO 16003KT 18/15 A3004 RMK AO1 SLP157 T01830150





000
SAUS43 KDDC 280857
MTRP28
METAR KP28 280856Z AUTO 16004KT 19/15 A3004 RMK AO1 SLP157 T01890150
57006





000
SAUS43 KDDC 280757
MTRP28
METAR KP28 280756Z AUTO 17004KT 20/15 A3005 RMK AO1 SLP159 T02000150





000
SAUS43 KDDC 280657
MTRP28
METAR KP28 280656Z AUTO 17005KT 21/15 A3006 RMK AO1 SLP163 T02060150





000
SAUS43 KDDC 280657
MTRP28
METAR KP28 280656Z AUTO 17005KT 21/15 A3006 RMK AO1 SLP163 T02060150





000
SAUS43 KDDC 280557
MTRP28
METAR KP28 280556Z AUTO 18007KT 22/15 A3006 RMK AO1 SLP164 T02170150
10317 20217 403280156 51009





000
SAUS43 KDDC 280557
MTRP28
METAR KP28 280556Z AUTO 18007KT 22/15 A3006 RMK AO1 SLP164 T02170150
10317 20217 403280156 51009





000
SAUS43 KDDC 280457
MTRP28
METAR KP28 280456Z AUTO 16006KT 23/14 A3006 RMK AO1 SLP162 T02280144





000
SAUS43 KDDC 280457
MTRP28
METAR KP28 280456Z AUTO 16006KT 23/14 A3006 RMK AO1 SLP162 T02280144





000
SAUS43 KDDC 280357
MTRP28
METAR KP28 280356Z AUTO 16004KT 24/13 A3005 RMK AO1 SLP159 T02440133





000
SAUS43 KDDC 280357
MTRP28
METAR KP28 280356Z AUTO 16004KT 24/13 A3005 RMK AO1 SLP159 T02440133





000
SAUS43 KDDC 280257
MTRP28
METAR KP28 280256Z AUTO 14005KT 26/13 A3003 RMK AO1 SLP155 T02560133
55000





000
SAUS43 KDDC 280257
MTRP28
METAR KP28 280256Z AUTO 14005KT 26/13 A3003 RMK AO1 SLP155 T02560133
55000





000
SAUS43 KDDC 280158
MTRP28
METAR KP28 280156Z AUTO 12005KT 28/13 A3003 RMK AO1 SLP152 T02780128





000
SAUS43 KDDC 280057
MTRP28
METAR KP28 280056Z AUTO VRB03KT 30/12 A3003 RMK AO1 SLP154 T03000122





000
SAUS43 KDDC 280057
MTRP28
METAR KP28 280056Z AUTO VRB03KT 30/12 A3003 RMK AO1 SLP154 T03000122





000
SAUS43 KDDC 272357
MTRP28
METAR KP28 272356Z AUTO 36004KT 32/10 A3004 RMK AO1 SLP156 T03170100
10328 20294 56015





000
SAUS43 KDDC 272357
MTRP28
METAR KP28 272356Z AUTO 36004KT 32/10 A3004 RMK AO1 SLP156 T03170100
10328 20294 56015





000
SAUS43 KDDC 272257
MTRP28
METAR KP28 272256Z AUTO 04005KT 32/12 A3005 RMK AO1 SLP160 T03170117





000
SAUS43 KDDC 272157
MTRP28
METAR KP28 272156Z AUTO 33003KT 32/11 A3006 RMK AO1 SLP164 T03220111





000
SAUS43 KDDC 272057
MTRP28
METAR KP28 272056Z AUTO VRB03KT 32/12 A3008 RMK AO1 SLP172 T03170117
56017





000
SAUS43 KDDC 271958
MTRP28
METAR KP28 271956Z AUTO VRB04KT 31/12 A3010 RMK AO1 SLP176 T03060117





000
SAUS43 KDDC 271857
MTRP28
METAR KP28 271856Z AUTO 31/12 A3012 RMK AO1 SLP182 T03060122





000
SAUS43 KDDC 271757
MTRP28
METAR KP28 271756Z AUTO 29/12 A3013 RMK AO1 SLP188 T02940122 10300
20161 58005





000
SAUS43 KDDC 271657
MTRP28
METAR KP28 271656Z AUTO VRB05KT 29/14 A3015 RMK AO1 SLP191 T02940139





000
SAUS43 KDDC 271558
MTRP28
METAR KP28 271556Z AUTO 03008KT 27/13 A3015 RMK AO1 SLP193 T02720133





000
SAUS43 KDDC 271457
MTRP28
METAR KP28 271456Z AUTO 00000KT 26/16 A3015 RMK AO1 SLP194 T02560161
50004





000
SAUS43 KDDC 271457
MTRP28
METAR KP28 271456Z AUTO 00000KT 26/16 A3015 RMK AO1 SLP194 T02560161
50004





000
SAUS43 KDDC 271358
MTRP28
METAR KP28 271356Z AUTO 33004KT 23/17 A3016 RMK AO1 SLP197 T02330172





000
SAUS43 KDDC 271257
MTRP28
METAR KP28 271256Z AUTO 00000KT 19/16 A3016 RMK AO1 SLP197 T01940161





000
SAUS43 KDDC 271257
MTRP28
METAR KP28 271256Z AUTO 00000KT 19/16 A3016 RMK AO1 SLP197 T01940161





000
SAUS43 KDDC 271157
MTRP28
METAR KP28 271156Z AUTO 34003KT 16/15 A3014 RMK AO1 SLP191 T01610150
10206 20156 53012





000
SAUS43 KDDC 271157
MTRP28
METAR KP28 271156Z AUTO 34003KT 16/15 A3014 RMK AO1 SLP191 T01610150
10206 20156 53012





000
SAUS43 KDDC 271057
MTRP28
METAR KP28 271056Z AUTO 32003KT 17/16 A3012 RMK AO1 SLP184 T01670156





000
SAUS43 KDDC 270957
MTRP28
METAR KP28 270956Z AUTO 35003KT 17/16 A3010 RMK AO1 SLP180 T01720156





000
SAUS43 KDDC 270857
MTRP28
METAR KP28 270856Z AUTO 36004KT 17/16 A3010 RMK AO1 SLP177 T01720156
58000





000
SAUS43 KDDC 270757
MTRP28
METAR KP28 270756Z AUTO 36005KT 18/16 A3011 RMK AO1 SLP182 T01780156





000
SAUS43 KDDC 270657
MTRP28
METAR KP28 270656Z AUTO 01003KT 19/16 A3011 RMK AO1 SLP181 T01940161





000
SAUS43 KDDC 270557
MTRP28
METAR KP28 270556Z AUTO 00000KT 21/16 A3010 RMK AO1 SLP177 T02060161
10306 20200 403220200 51014





000
SAUS43 KDDC 270557
MTRP28
METAR KP28 270556Z AUTO 00000KT 21/16 A3010 RMK AO1 SLP177 T02060161
10306 20200 403220200 51014





000
SAUS43 KDDC 270457
MTRP28
METAR KP28 270456Z AUTO 04007KT 23/16 A3009 RMK AO1 SLP175 T02280161





000
SAUS43 KDDC 270358
MTRP28
METAR KP28 270356Z AUTO 03008KT 23/16 A3008 RMK AO1 SLP171 T02330161





000
SAUS43 KDDC 270258
MTRP28
METAR KP28 270256Z AUTO 04009KT 25/16 A3006 RMK AO1 SLP162 T02500156
53021





000
SAUS43 KDDC 270157
MTRP28
METAR KP28 270156Z AUTO 02008KT 27/16 A3002 RMK AO1 SLP151 T02670156





000
SAUS43 KDDC 270057
MTRP28
METAR KP28 270056Z AUTO 03012KT 29/16 A3001 RMK AO1 SLP147 T02940156





000
SAUS43 KDDC 270057
MTRP28
METAR KP28 270056Z AUTO 03012KT 29/16 A3001 RMK AO1 SLP147 T02940156





000
SAUS43 KDDC 262357
MTRP28
METAR KP28 262356Z AUTO 01016G19KT 31/16 A2999 RMK AO1 SLP138
T03060156 10322 20294 56006





    US Dept of Commerce
    National Oceanic and Atmospheric Administration
    National Weather Service
    1325 East West Highway
    Silver Spring, MD 20910
    Page Author: NWS Internet Services Team
Disclaimer
Information Quality
Credits
Glossary
Privacy Policy
Freedom of Information Act (FOIA)
About Us
Career Opportunities